sensor_id;sensor_type;location;lat;lon;timestamp;pressure;altitude;pressure_sealevel;temperature
66602;BMP280;53459;51.828;7.872;2022-09-09T02:51:54;105197.47;;;15.19
66602;BMP280;53459;51.828;7.872;2022-09-09T02:54:31;103443.09;;;15.12
66602;BMP280;53459;51.828;7.872;2022-09-09T02:57:16;101347.13;;;15.07
66602;BMP280;53459;51.828;7.872;2022-09-09T03:00:33;78017.13;;;-138.45
66602;BMP280;53459;51.828;7.872;2022-09-09T03:03:27;101347.13;;;15.07
66602;BMP280;53459;51.828;7.872;2022-09-09T03:05:54;105598.28;;;15.49
66602;BMP280;53459;51.828;7.872;2022-09-09T03:10:42;115071.78;;;15.73
66602;BMP280;53459;51.828;7.872;2022-09-09T03:13:08;115086.69;;;15.81
66602;BMP280;53459;51.828;7.872;2022-09-09T03:15:34;117889.84;;;15.82
66602;BMP280;53459;51.828;7.872;2022-09-09T03:18:00;122114.63;;;15.91
66602;BMP280;53459;51.828;7.872;2022-09-09T03:20:28;124235.78;;;15.98
66602;BMP280;53459;51.828;7.872;2022-09-09T03:22:54;126687.78;;;15.95
66602;BMP280;53459;51.828;7.872;2022-09-09T03:25:21;119331.22;;;16.02
66602;BMP280;53459;51.828;7.872;2022-09-09T03:27:52;127422.84;;;16.10
66602;BMP280;53459;51.828;7.872;2022-09-09T03:30:21;125688.75;;;16.21
66602;BMP280;53459;51.828;7.872;2022-09-09T03:32:49;133435.69;;;16.23
66602;BMP280;53459;51.828;7.872;2022-09-09T03:35:16;140169.72;;;16.37
66602;BMP280;53459;51.828;7.872;2022-09-09T03:37:48;136631.25;;;16.33
66602;BMP280;53459;51.828;7.872;2022-09-09T03:40:14;137694.47;;;16.35
66602;BMP280;53459;51.828;7.872;2022-09-09T03:42:39;133819.66;;;16.38
66602;BMP280;53459;51.828;7.872;2022-09-09T03:45:07;142282.06;;;16.33
66602;BMP280;53459;51.828;7.872;2022-09-09T03:47:43;134519.34;;;16.35
66602;BMP280;53459;51.828;7.872;2022-09-09T03:50:18;136984.13;;;16.33
66602;BMP280;53459;51.828;7.872;2022-09-09T03:53:03;128161.56;;;16.27
66602;BMP280;53459;51.828;7.872;2022-09-09T03:56:21;68239.09;;;-138.45
66602;BMP280;53459;51.828;7.872;2022-09-09T03:59:40;68239.09;;;-138.45
66602;BMP280;53459;51.828;7.872;2022-09-09T04:02:58;68239.09;;;-138.45
66602;BMP280;53459;51.828;7.872;2022-09-09T04:06:17;68239.09;;;-138.45
66602;BMP280;53459;51.828;7.872;2022-09-09T04:09:47;68239.09;;;-138.45
66602;BMP280;53459;51.828;7.872;2022-09-09T04:13:06;68239.09;;;-138.45
66602;BMP280;53459;51.828;7.872;2022-09-09T04:16:34;68239.09;;;-138.45
66602;BMP280;53459;51.828;7.872;2022-09-09T04:19:53;68239.09;;;-138.45
66602;BMP280;53459;51.828;7.872;2022-09-09T04:48:22;105692.56;;;16.04
66602;BMP280;53459;51.828;7.872;2022-09-09T04:51:03;122164.19;;;16.15
66602;BMP280;53459;51.828;7.872;2022-09-09T04:53:40;122164.19;;;16.15
66602;BMP280;53459;51.828;7.872;2022-09-09T04:56:11;122164.19;;;16.15
66602;BMP280;53459;51.828;7.872;2022-09-09T04:58:38;127775.53;;;16.10
66602;BMP280;53459;51.828;7.872;2022-09-09T05:01:14;121445.47;;;16.07
66602;BMP280;53459;51.828;7.872;2022-09-09T05:03:42;131302.78;;;16.14
66602;BMP280;53459;51.828;7.872;2022-09-09T05:06:15;130952.81;;;16.15
66602;BMP280;53459;51.828;7.872;2022-09-09T05:08:47;135901.34;;;16.22
66602;BMP280;53459;51.828;7.872;2022-09-09T05:15:26;68239.09;;;-138.45
66602;BMP280;53459;51.828;7.872;2022-09-09T05:18:45;68239.09;;;-138.45
66602;BMP280;53459;51.828;7.872;2022-09-09T05:22:10;68239.09;;;-138.45
66602;BMP280;53459;51.828;7.872;2022-09-09T05:53:23;157618.91;;;16.98
66602;BMP280;53459;51.828;7.872;2022-09-09T05:56:08;157618.91;;;16.98
66602;BMP280;53459;51.828;7.872;2022-09-09T05:58:36;162669.34;;;16.98
66602;BMP280;53459;51.828;7.872;2022-09-09T06:01:19;162668.06;;;16.97
66602;BMP280;53459;51.828;7.872;2022-09-09T06:03:46;162693.22;;;17.07
66602;BMP280;53459;51.828;7.872;2022-09-09T06:07:08;68239.09;;;-138.45
66602;BMP280;53459;51.828;7.872;2022-09-09T06:15:05;68239.09;;;-138.45
66602;BMP280;53459;51.828;7.872;2022-09-09T06:18:34;68239.09;;;-138.45
66602;BMP280;53459;51.828;7.872;2022-09-09T06:21:56;68239.09;;;-138.45
66602;BMP280;53459;51.828;7.872;2022-09-09T06:25:49;68239.09;;;-138.45
66602;BMP280;53459;51.828;7.872;2022-09-09T06:29:08;68239.09;;;-138.45
66602;BMP280;53459;51.828;7.872;2022-09-09T06:32:27;68239.09;;;-138.45
66602;BMP280;53459;51.828;7.872;2022-09-09T06:36:12;68239.09;;;-138.45
66602;BMP280;53459;51.828;7.872;2022-09-09T06:43:43;68239.09;;;-138.45
66602;BMP280;53459;51.828;7.872;2022-09-09T06:54:52;68239.09;;;-138.45
66602;BMP280;53459;51.828;7.872;2022-09-09T06:59:39;162861.50;;;17.70
66602;BMP280;53459;51.828;7.872;2022-09-09T07:05:09;162921.09;;;17.92
66602;BMP280;53459;51.828;7.872;2022-09-09T07:08:31;68239.09;;;-138.45
66602;BMP280;53459;51.828;7.872;2022-09-09T07:12:03;68239.09;;;-138.45
66602;BMP280;53459;51.828;7.872;2022-09-09T07:22:19;68239.09;;;-138.45
66602;BMP280;53459;51.828;7.872;2022-09-09T07:26:06;68239.09;;;-138.45
66602;BMP280;53459;51.828;7.872;2022-09-09T07:29:34;68239.09;;;-138.45
66602;BMP280;53459;51.828;7.872;2022-09-09T07:33:14;68239.09;;;-138.45
66602;BMP280;53459;51.828;7.872;2022-09-09T07:36:33;68239.09;;;-138.45
66602;BMP280;53459;51.828;7.872;2022-09-09T07:39:55;68239.09;;;-138.45
66602;BMP280;53459;51.828;7.872;2022-09-09T08:01:52;163532.50;;;20.21
66602;BMP280;53459;51.828;7.872;2022-09-09T08:04:22;163553.69;;;20.29
66602;BMP280;53459;51.828;7.872;2022-09-09T08:06:48;163574.94;;;20.37
66602;BMP280;53459;51.828;7.872;2022-09-09T08:09:15;163581.56;;;20.40
66602;BMP280;53459;51.828;7.872;2022-09-09T08:11:42;163626.72;;;20.56
66602;BMP280;53459;51.828;7.872;2022-09-09T08:14:09;163586.88;;;20.42
66602;BMP280;53459;51.828;7.872;2022-09-09T08:16:42;163521.84;;;20.17
66602;BMP280;53459;51.828;7.872;2022-09-09T08:19:08;163496.63;;;20.08
66602;BMP280;53459;51.828;7.872;2022-09-09T08:21:36;163439.56;;;19.86
66602;BMP280;53459;51.828;7.872;2022-09-09T08:24:03;163475.41;;;20.00
66602;BMP280;53459;51.828;7.872;2022-09-09T08:27:57;163544.38;;;20.26
66602;BMP280;53459;51.828;7.872;2022-09-09T08:31:04;163605.47;;;20.48
66602;BMP280;53459;51.828;7.872;2022-09-09T08:33:44;163703.72;;;20.85
66602;BMP280;53459;51.828;7.872;2022-09-09T08:37:33;163626.72;;;20.56
66602;BMP280;53459;51.828;7.872;2022-09-09T08:40:32;163547.06;;;20.27
66602;BMP280;53459;51.828;7.872;2022-09-09T08:43:50;163524.50;;;20.18
66602;BMP280;53459;51.828;7.872;2022-09-09T08:46:26;163496.63;;;20.08
66602;BMP280;53459;51.828;7.872;2022-09-09T08:51:59;163475.41;;;20.00
66602;BMP280;53459;51.828;7.872;2022-09-09T08:54:30;163446.19;;;19.89
66602;BMP280;53459;51.828;7.872;2022-09-09T08:56:58;163454.16;;;19.92
66602;BMP280;53459;51.828;7.872;2022-09-09T08:59:24;163520.53;;;20.17
66602;BMP280;53459;51.828;7.872;2022-09-09T09:07:18;68239.09;;;-138.45
66602;BMP280;53459;51.828;7.872;2022-09-09T09:11:04;68239.09;;;-138.45
66602;BMP280;53459;51.828;7.872;2022-09-09T09:18:54;68239.09;;;-138.45
66602;BMP280;53459;51.828;7.872;2022-09-09T09:26:12;163804.59;;;21.23
66602;BMP280;53459;51.828;7.872;2022-09-09T09:28:39;163796.66;;;21.20
66602;BMP280;53459;51.828;7.872;2022-09-09T09:31:05;163889.63;;;21.55
66602;BMP280;53459;51.828;7.872;2022-09-09T09:33:58;163825.84;;;21.31
66602;BMP280;53459;51.828;7.872;2022-09-09T09:36:42;163936.13;;;21.72
66602;BMP280;53459;51.828;7.872;2022-09-09T09:39:22;164067.63;;;22.21
66602;BMP280;53459;51.828;7.872;2022-09-09T09:42:54;164493.03;;;23.80
66602;BMP280;53459;51.828;7.872;2022-09-09T09:45:32;164611.41;;;24.24
66602;BMP280;53459;51.828;7.872;2022-09-09T09:48:20;164918.88;;;25.39
66602;BMP280;53459;51.828;7.872;2022-09-09T09:50:50;165257.09;;;26.65
66602;BMP280;53459;51.828;7.872;2022-09-09T09:54:39;165169.16;;;26.33
66602;BMP280;53459;51.828;7.872;2022-09-09T09:57:12;165218.50;;;26.51
66602;BMP280;53459;51.828;7.872;2022-09-09T10:01:29;164981.38;;;25.63
66602;BMP280;53459;51.828;7.872;2022-09-09T10:04:16;165287.75;;;26.77
66602;BMP280;53459;51.828;7.872;2022-09-09T10:06:44;165417.00;;;27.25
66602;BMP280;53459;51.828;7.872;2022-09-09T10:10:31;164809.69;;;24.98
66602;BMP280;53459;51.828;7.872;2022-09-09T10:13:24;164922.84;;;25.41
66602;BMP280;53459;51.828;7.872;2022-09-09T10:19:33;165217.13;;;26.50
66602;BMP280;53459;51.828;7.872;2022-09-09T10:22:15;165357.06;;;27.03
66602;BMP280;53459;51.828;7.872;2022-09-09T10:27:48;165639.56;;;28.08
66602;BMP280;53459;51.828;7.872;2022-09-09T10:30:19;165635.94;;;28.46
66602;BMP280;53459;51.828;7.872;2022-09-09T10:32:50;165692.94;;;28.28
66602;BMP280;53459;51.828;7.872;2022-09-09T10:35:45;161242.25;;;28.92
66602;BMP280;53459;51.828;7.872;2022-09-09T10:38:29;155603.41;;;29.27
66602;BMP280;53459;51.828;7.872;2022-09-09T10:42:16;161399.47;;;28.93
66602;BMP280;53459;51.828;7.872;2022-09-09T10:44:50;165680.94;;;28.23
66602;BMP280;53459;51.828;7.872;2022-09-09T10:53:33;165704.94;;;28.32
66602;BMP280;53459;51.828;7.872;2022-09-09T10:56:07;165422.31;;;27.27
66602;BMP280;53459;51.828;7.872;2022-09-09T10:58:47;165587.59;;;27.89
66602;BMP280;53459;51.828;7.872;2022-09-09T11:01:21;165695.59;;;28.29
66602;BMP280;53459;51.828;7.872;2022-09-09T11:03:56;165201.16;;;26.44
66602;BMP280;53459;51.828;7.872;2022-09-09T11:08:57;164538.28;;;23.97
66602;BMP280;53459;51.828;7.872;2022-09-09T11:11:32;164721.88;;;24.66
66602;BMP280;53459;51.828;7.872;2022-09-09T11:14:22;164741.81;;;24.73
66602;BMP280;53459;51.828;7.872;2022-09-09T11:16:53;164445.13;;;23.62
66602;BMP280;53459;51.828;7.872;2022-09-09T11:19:43;164437.13;;;23.59
66602;BMP280;53459;51.828;7.872;2022-09-09T11:31:20;164564.88;;;24.07
66602;BMP280;53459;51.828;7.872;2022-09-09T11:34:03;164447.81;;;23.63
66602;BMP280;53459;51.828;7.872;2022-09-09T11:36:56;164568.84;;;24.09
66602;BMP280;53459;51.828;7.872;2022-09-09T11:42:21;165069.28;;;25.95
66602;BMP280;53459;51.828;7.872;2022-09-09T11:44:47;165403.66;;;27.20
66602;BMP280;53459;51.828;7.872;2022-09-09T11:47:27;165322.38;;;26.90
66602;BMP280;53459;51.828;7.872;2022-09-09T11:52:47;165562.28;;;27.79
66602;BMP280;53459;51.828;7.872;2022-09-09T11:55:32;165239.78;;;26.59
66602;BMP280;53459;51.828;7.872;2022-09-09T11:58:03;164966.78;;;25.57
66602;BMP280;53459;51.828;7.872;2022-09-09T12:03:03;165592.94;;;27.91
66602;BMP280;53459;51.828;7.872;2022-09-09T12:05:42;165607.59;;;27.96
66602;BMP280;53459;51.828;7.872;2022-09-09T12:09:08;165052.00;;;25.89
66602;BMP280;53459;51.828;7.872;2022-09-09T12:11:36;164820.31;;;25.02
66602;BMP280;53459;51.828;7.872;2022-09-09T12:14:02;165479.63;;;27.48
66602;BMP280;53459;51.828;7.872;2022-09-09T12:16:31;165515.63;;;27.62
66602;BMP280;53459;51.828;7.872;2022-09-09T12:19:05;165163.81;;;26.31
66602;BMP280;53459;51.828;7.872;2022-09-09T12:24:39;165117.25;;;26.13
66602;BMP280;53459;51.828;7.872;2022-09-09T12:33:12;165345.03;;;26.98
66602;BMP280;53459;51.828;7.872;2022-09-09T12:35:40;163042.25;;;28.75
66602;BMP280;53459;51.828;7.872;2022-09-09T12:38:12;159807.94;;;28.99
66602;BMP280;53459;51.828;7.872;2022-09-09T12:41:40;165711.59;;;28.35
66602;BMP280;53459;51.828;7.872;2022-09-09T12:44:09;165503.59;;;27.57
66602;BMP280;53459;51.828;7.872;2022-09-09T12:46:39;165711.59;;;28.35
66602;BMP280;53459;51.828;7.872;2022-09-09T12:49:35;165596.94;;;27.92
66602;BMP280;53459;51.828;7.872;2022-09-09T12:52:11;165419.69;;;27.26
66602;BMP280;53459;51.828;7.872;2022-09-09T12:54:44;165363.72;;;27.05
66602;BMP280;53459;51.828;7.872;2022-09-09T12:57:15;163147.41;;;28.74
66602;BMP280;53459;51.828;7.872;2022-09-09T12:59:43;165555.63;;;27.77
66602;BMP280;53459;51.828;7.872;2022-09-09T13:04:27;165161.16;;;26.30
66602;BMP280;53459;51.828;7.872;2022-09-09T13:06:52;164982.75;;;25.63
66602;BMP280;53459;51.828;7.872;2022-09-09T13:09:18;165239.78;;;26.59
66602;BMP280;53459;51.828;7.872;2022-09-09T13:11:55;165342.34;;;26.97
66602;BMP280;53459;51.828;7.872;2022-09-09T13:16:28;164885.56;;;25.27
66602;BMP280;53459;51.828;7.872;2022-09-09T13:19:02;164749.81;;;24.76
66602;BMP280;53459;51.828;7.872;2022-09-09T13:21:39;164572.88;;;24.10
66602;BMP280;53459;51.828;7.872;2022-09-09T13:24:21;164487.75;;;23.78
66602;BMP280;53459;51.828;7.872;2022-09-09T13:27:05;164429.19;;;23.56
66602;BMP280;53459;51.828;7.872;2022-09-09T13:29:51;164251.00;;;22.90
66602;BMP280;53459;51.828;7.872;2022-09-09T13:33:46;164207.16;;;22.73
66602;BMP280;53459;51.828;7.872;2022-09-09T13:36:13;164201.88;;;22.71
66602;BMP280;53459;51.828;7.872;2022-09-09T13:41:23;164297.59;;;23.07
66602;BMP280;53459;51.828;7.872;2022-09-09T13:43:49;164165.97;;;22.58
66602;BMP280;53459;51.828;7.872;2022-09-09T13:49:18;164055.66;;;22.17
66602;BMP280;53459;51.828;7.872;2022-09-09T13:52:31;163950.75;;;21.78
66602;BMP280;53459;51.828;7.872;2022-09-09T13:55:14;164070.28;;;22.22
66602;BMP280;53459;51.828;7.872;2022-09-09T13:57:56;164023.78;;;22.05
66602;BMP280;53459;51.828;7.872;2022-09-09T14:00:23;163941.44;;;21.74
66602;BMP280;53459;51.828;7.872;2022-09-09T14:02:49;163957.38;;;21.80
66602;BMP280;53459;51.828;7.872;2022-09-09T14:09:35;163809.91;;;21.25
66602;BMP280;53459;51.828;7.872;2022-09-09T14:12:01;163832.47;;;21.33
66602;BMP280;53459;51.828;7.872;2022-09-09T14:14:27;163921.47;;;21.67
66602;BMP280;53459;51.828;7.872;2022-09-09T14:16:53;163908.22;;;21.62
66602;BMP280;53459;51.828;7.872;2022-09-09T14:19:19;163828.50;;;21.32
66602;BMP280;53459;51.828;7.872;2022-09-09T14:21:45;163909.56;;;21.62
66602;BMP280;53459;51.828;7.872;2022-09-09T14:24:10;164118.16;;;22.40
66602;BMP280;53459;51.828;7.872;2022-09-09T14:29:48;164628.69;;;24.31
66602;BMP280;53459;51.828;7.872;2022-09-09T14:32:14;164699.25;;;24.57
66602;BMP280;53459;51.828;7.872;2022-09-09T14:34:39;164787.06;;;24.90
66602;BMP280;53459;51.828;7.872;2022-09-09T14:37:06;164914.84;;;25.38
66602;BMP280;53459;51.828;7.872;2022-09-09T14:39:31;165008.03;;;25.72
66602;BMP280;53459;51.828;7.872;2022-09-09T14:41:57;164709.88;;;24.61
66602;BMP280;53459;51.828;7.872;2022-09-09T14:44:23;164466.44;;;23.70
66602;BMP280;53459;51.828;7.872;2022-09-09T14:46:49;164293.63;;;23.06
66602;BMP280;53459;51.828;7.872;2022-09-09T14:49:15;164282.94;;;23.02
66602;BMP280;53459;51.828;7.872;2022-09-09T14:51:41;164132.78;;;22.46
66602;BMP280;53459;51.828;7.872;2022-09-09T14:54:07;164057.00;;;22.17
66602;BMP280;53459;51.828;7.872;2022-09-09T14:56:42;164009.16;;;21.99
66602;BMP280;53459;51.828;7.872;2022-09-09T14:59:08;163875.00;;;21.49
66602;BMP280;53459;51.828;7.872;2022-09-09T15:02:37;163851.06;;;21.40
66602;BMP280;53459;51.828;7.872;2022-09-09T15:05:03;163820.53;;;21.29
66602;BMP280;53459;51.828;7.872;2022-09-09T15:07:29;163740.88;;;20.99
66602;BMP280;53459;51.828;7.872;2022-09-09T15:09:57;163724.97;;;20.93
66602;BMP280;53459;51.828;7.872;2022-09-09T15:12:23;163786.00;;;21.16
66602;BMP280;53459;51.828;7.872;2022-09-09T15:14:49;163776.72;;;21.13
66602;BMP280;53459;51.828;7.872;2022-09-09T15:17:16;163780.72;;;21.14
66602;BMP280;53459;51.828;7.872;2022-09-09T15:19:42;163779.38;;;21.14
66602;BMP280;53459;51.828;7.872;2022-09-09T15:22:17;163950.75;;;21.78
66602;BMP280;53459;51.828;7.872;2022-09-09T15:24:42;163964.00;;;21.83
66602;BMP280;53459;51.828;7.872;2022-09-09T15:27:08;164039.72;;;22.11
66602;BMP280;53459;51.828;7.872;2022-09-09T15:30:17;163985.28;;;21.91
66602;BMP280;53459;51.828;7.872;2022-09-09T15:32:43;164057.00;;;22.17
66602;BMP280;53459;51.828;7.872;2022-09-09T15:35:08;163999.84;;;21.96
66602;BMP280;53459;51.828;7.872;2022-09-09T15:37:34;163966.69;;;21.84
66602;BMP280;53459;51.828;7.872;2022-09-09T15:39:59;163930.78;;;21.70
66602;BMP280;53459;51.828;7.872;2022-09-09T15:42:26;163986.56;;;21.91
66602;BMP280;53459;51.828;7.872;2022-09-09T15:44:51;164011.81;;;22.00
66602;BMP280;53459;51.828;7.872;2022-09-09T15:47:17;164003.88;;;21.97
66602;BMP280;53459;51.828;7.872;2022-09-09T15:49:43;164017.13;;;22.02
66602;BMP280;53459;51.828;7.872;2022-09-09T15:52:10;164083.56;;;22.27
66602;BMP280;53459;51.828;7.872;2022-09-09T15:54:36;164075.56;;;22.24
66602;BMP280;53459;51.828;7.872;2022-09-09T15:57:07;164031.72;;;22.08
66602;BMP280;53459;51.828;7.872;2022-09-09T15:59:36;163974.59;;;21.87
66602;BMP280;53459;51.828;7.872;2022-09-09T16:02:03;163934.81;;;21.72
66602;BMP280;53459;51.828;7.872;2022-09-09T16:04:30;163913.53;;;21.64
66602;BMP280;53459;51.828;7.872;2022-09-09T16:06:58;163827.16;;;21.31
66602;BMP280;53459;51.828;7.872;2022-09-09T16:09:25;163735.56;;;20.97
66602;BMP280;53459;51.828;7.872;2022-09-09T16:11:52;163630.69;;;20.58
66602;BMP280;53459;51.828;7.872;2022-09-09T16:14:19;163604.09;;;20.48
66602;BMP280;53459;51.828;7.872;2022-09-09T16:16:45;163427.59;;;19.82
66602;BMP280;53459;51.828;7.872;2022-09-09T16:19:12;163362.59;;;19.58
66602;BMP280;53459;51.828;7.872;2022-09-09T16:22:53;163289.66;;;19.30
66602;BMP280;53459;51.828;7.872;2022-09-09T16:25:19;163284.34;;;19.28
66602;BMP280;53459;51.828;7.872;2022-09-09T16:27:48;163279.09;;;19.26
66602;BMP280;53459;51.828;7.872;2022-09-09T16:30:14;163280.38;;;19.27
66602;BMP280;53459;51.828;7.872;2022-09-09T16:32:40;163279.09;;;19.26
66602;BMP280;53459;51.828;7.872;2022-09-09T16:35:09;163244.59;;;19.13
66602;BMP280;53459;51.828;7.872;2022-09-09T16:37:35;162923.72;;;17.93
66602;BMP280;53459;51.828;7.872;2022-09-09T16:40:00;162677.31;;;17.01
66602;BMP280;53459;51.828;7.872;2022-09-09T16:43:20;68239.09;;;-138.45
66602;BMP280;53459;51.828;7.872;2022-09-09T16:46:40;68239.09;;;-138.45
66602;BMP280;53459;51.828;7.872;2022-09-09T16:50:00;68239.09;;;-138.45
66602;BMP280;53459;51.828;7.872;2022-09-09T16:53:18;68239.09;;;-138.45
66602;BMP280;53459;51.828;7.872;2022-09-09T16:56:37;68239.09;;;-138.45
66602;BMP280;53459;51.828;7.872;2022-09-09T17:00:00;68239.09;;;-138.45
66602;BMP280;53459;51.828;7.872;2022-09-09T17:03:20;68239.09;;;-138.45
66602;BMP280;53459;51.828;7.872;2022-09-09T17:06:38;68239.09;;;-138.45
66602;BMP280;53459;51.828;7.872;2022-09-09T17:09:59;68239.09;;;-138.45
66602;BMP280;53459;51.828;7.872;2022-09-09T17:13:17;68239.09;;;-138.45
66602;BMP280;53459;51.828;7.872;2022-09-09T17:16:38;68239.09;;;-138.45
66602;BMP280;53459;51.828;7.872;2022-09-09T17:19:58;68239.09;;;-138.45
66602;BMP280;53459;51.828;7.872;2022-09-09T17:23:28;106700.75;;;15.82
66602;BMP280;53459;51.828;7.872;2022-09-09T17:26:51;68239.09;;;-138.45
66602;BMP280;53459;51.828;7.872;2022-09-09T17:35:29;68239.09;;;-138.45
66602;BMP280;53459;51.828;7.872;2022-09-09T17:38:48;68239.09;;;-138.45
66602;BMP280;53459;51.828;7.872;2022-09-09T17:48:51;112286.34;;;15.80
66602;BMP280;53459;51.828;7.872;2022-09-09T17:52:13;68239.09;;;-138.45
66602;BMP280;53459;51.828;7.872;2022-09-09T17:59:46;68239.09;;;-138.45
66602;BMP280;53459;51.828;7.872;2022-09-09T18:03:04;68239.09;;;-138.45
66602;BMP280;53459;51.828;7.872;2022-09-09T18:06:24;68239.09;;;-138.45
66602;BMP280;53459;51.828;7.872;2022-09-09T18:09:46;68239.09;;;-138.45
66602;BMP280;53459;51.828;7.872;2022-09-09T18:13:04;68239.09;;;-138.45
66602;BMP280;53459;51.828;7.872;2022-09-09T18:16:29;68239.09;;;-138.45
66602;BMP280;53459;51.828;7.872;2022-09-09T18:19:48;68239.09;;;-138.45
66602;BMP280;53459;51.828;7.872;2022-09-09T18:23:07;68239.09;;;-138.45
66602;BMP280;53459;51.828;7.872;2022-09-09T18:26:33;68239.09;;;-138.45
66602;BMP280;53459;51.828;7.872;2022-09-09T18:29:53;68239.09;;;-138.45
66602;BMP280;53459;51.828;7.872;2022-09-09T18:33:15;68239.09;;;-138.45
66602;BMP280;53459;51.828;7.872;2022-09-09T18:36:34;68239.09;;;-138.45
66602;BMP280;53459;51.828;7.872;2022-09-09T18:39:53;68239.09;;;-138.45
66602;BMP280;53459;51.828;7.872;2022-09-09T18:43:18;68239.09;;;-138.45
66602;BMP280;53459;51.828;7.872;2022-09-09T18:46:36;68239.09;;;-138.45
66602;BMP280;53459;51.828;7.872;2022-09-09T18:49:55;68239.09;;;-138.45
66602;BMP280;53459;51.828;7.872;2022-09-09T18:53:14;68239.09;;;-138.45
66602;BMP280;53459;51.828;7.872;2022-09-09T18:56:32;68239.09;;;-138.45
66602;BMP280;53459;51.828;7.872;2022-09-09T18:59:53;68239.09;;;-138.45
66602;BMP280;53459;51.828;7.872;2022-09-09T19:03:12;68239.09;;;-138.45
66602;BMP280;53459;51.828;7.872;2022-09-09T19:06:31;68239.09;;;-138.45
66602;BMP280;53459;51.828;7.872;2022-09-09T19:09:50;68239.09;;;-138.45
66602;BMP280;53459;51.828;7.872;2022-09-09T19:13:08;68239.09;;;-138.45
66602;BMP280;53459;51.828;7.872;2022-09-09T19:16:30;68239.09;;;-138.45
66602;BMP280;53459;51.828;7.872;2022-09-09T19:19:50;68239.09;;;-138.45
66602;BMP280;53459;51.828;7.872;2022-09-09T19:23:28;68239.09;;;-138.45
66602;BMP280;53459;51.828;7.872;2022-09-09T19:26:53;68239.09;;;-138.45
66602;BMP280;53459;51.828;7.872;2022-09-09T19:47:17;127498.44;;;16.46
66602;BMP280;53459;51.828;7.872;2022-09-09T19:49:43;127161.09;;;16.53
66602;BMP280;53459;51.828;7.872;2022-09-09T19:53:02;68239.09;;;-138.45
66602;BMP280;53459;51.828;7.872;2022-09-09T19:56:21;68239.09;;;-138.45
66602;BMP280;53459;51.828;7.872;2022-09-09T19:59:40;68239.09;;;-138.45
66602;BMP280;53459;51.828;7.872;2022-09-09T20:02:59;68239.09;;;-138.45
66602;BMP280;53459;51.828;7.872;2022-09-09T20:06:18;68239.09;;;-138.45
66602;BMP280;53459;51.828;7.872;2022-09-09T20:09:38;68239.09;;;-138.45
66602;BMP280;53459;51.828;7.872;2022-09-09T20:12:56;68239.09;;;-138.45
66602;BMP280;53459;51.828;7.872;2022-09-09T20:25:02;68239.09;;;-138.45
66602;BMP280;53459;51.828;7.872;2022-09-09T20:35:32;68239.09;;;-138.45
66602;BMP280;53459;51.828;7.872;2022-09-09T20:38:51;68239.09;;;-138.45
66602;BMP280;53459;51.828;7.872;2022-09-09T20:42:11;68239.09;;;-138.45
66602;BMP280;53459;51.828;7.872;2022-09-09T20:45:30;68239.09;;;-138.45
66602;BMP280;53459;51.828;7.872;2022-09-09T20:48:57;68239.09;;;-138.45
66602;BMP280;53459;51.828;7.872;2022-09-09T20:52:16;68239.09;;;-138.45
66602;BMP280;53459;51.828;7.872;2022-09-09T20:55:37;68239.09;;;-138.45
66602;BMP280;53459;51.828;7.872;2022-09-09T20:58:55;68239.09;;;-138.45
66602;BMP280;53459;51.828;7.872;2022-09-09T21:13:23;68239.09;;;-138.45
66602;BMP280;53459;51.828;7.872;2022-09-09T21:16:42;68239.09;;;-138.45
66602;BMP280;53459;51.828;7.872;2022-09-09T21:20:03;68239.09;;;-138.45
66602;BMP280;53459;51.828;7.872;2022-09-09T21:23:23;68239.09;;;-138.45
66602;BMP280;53459;51.828;7.872;2022-09-09T21:26:42;68239.09;;;-138.45
66602;BMP280;53459;51.828;7.872;2022-09-09T21:40:16;129914.75;;;16.24
66602;BMP280;53459;51.828;7.872;2022-09-09T21:42:42;124287.25;;;16.23
66602;BMP280;53459;51.828;7.872;2022-09-09T21:47:00;127446.66;;;16.21
66602;BMP280;53459;51.828;7.872;2022-09-09T21:49:25;125679.56;;;16.17
66602;BMP280;53459;51.828;7.872;2022-09-09T21:52:44;68239.09;;;-138.45
66602;BMP280;53459;51.828;7.872;2022-09-09T21:56:03;68239.09;;;-138.45
66602;BMP280;53459;51.828;7.872;2022-09-09T21:59:25;68239.09;;;-138.45
66602;BMP280;53459;51.828;7.872;2022-09-09T22:12:06;125221.31;;;15.65
66602;BMP280;53459;51.828;7.872;2022-09-09T22:14:31;119256.63;;;15.64
66602;BMP280;53459;51.828;7.872;2022-09-09T22:16:57;117845.84;;;15.59
66602;BMP280;53459;51.828;7.872;2022-09-09T22:19:23;118208.50;;;15.65
66602;BMP280;53459;51.828;7.872;2022-09-09T22:21:49;116097.28;;;15.60
66602;BMP280;53459;51.828;7.872;2022-09-09T22:24:15;116087.81;;;15.55
66602;BMP280;53459;51.828;7.872;2022-09-09T22:26:41;114682.72;;;15.52
66602;BMP280;53459;51.828;7.872;2022-09-09T22:36:33;68239.09;;;-138.45
66602;BMP280;53459;51.828;7.872;2022-09-09T22:39:19;115060.56;;;15.67
66602;BMP280;53459;51.828;7.872;2022-09-09T22:42:37;68239.09;;;-138.45
66602;BMP280;53459;51.828;7.872;2022-09-09T22:45:56;68239.09;;;-138.45
66602;BMP280;53459;51.828;7.872;2022-09-09T22:49:23;68239.09;;;-138.45
66602;BMP280;53459;51.828;7.872;2022-09-09T22:52:42;68239.09;;;-138.45
66602;BMP280;53459;51.828;7.872;2022-09-09T22:56:01;68239.09;;;-138.45
66602;BMP280;53459;51.828;7.872;2022-09-09T23:07:05;120678.13;;;15.74
66602;BMP280;53459;51.828;7.872;2022-09-09T23:10:26;68239.09;;;-138.45
66602;BMP280;53459;51.828;7.872;2022-09-09T23:13:50;68239.09;;;-138.45
66602;BMP280;53459;51.828;7.872;2022-09-09T23:17:15;68239.09;;;-138.45
66602;BMP280;53459;51.828;7.872;2022-09-09T23:20:35;68239.09;;;-138.45
66602;BMP280;53459;51.828;7.872;2022-09-09T23:23:55;68239.09;;;-138.45
66602;BMP280;53459;51.828;7.872;2022-09-09T23:27:14;68239.09;;;-138.45
66602;BMP280;53459;51.828;7.872;2022-09-09T23:30:33;68239.09;;;-138.45
66602;BMP280;53459;51.828;7.872;2022-09-09T23:53:45;68239.09;;;-138.45
